Terminal Aerodrome Forecast
Issued by NWS Atlanta, GA

Home | Current Version | Previous Version | Text Only | Print | Product List | Glossary On
Versions: 1 2 3 4 5 6 7 8 9 10 11 12 13 14 15
313
FTUS42 KFFC 290520
TAFCSG
TAF
KCSG 290520Z 2906/3006 12008KT P6SM FEW025 BKN070 BKN150
     FM290900 11005KT P6SM VCSH BKN010
     FM291400 15007KT 6SM -SHRA BKN015 PROB30 2915/2919 5SM TSRA
      BKN015CB
     FM292000 15007KT 3SM -SHRA BKN015
     FM300100 13004KT 4SM -RA BR OVC007=

USA.gov is the U.S. government's official web portal to all federal, state and local government web resources and services.